Time;durP1;ratioP1;P1;durP2;ratioP2;P2;SDS_P1;SDS_P2;PMS_P1;PMS_P2;Temp;Humidity;BMP_temperature;BMP_pressure;BME280_temperature;BME280_humidity;BME280_pressure;Samples;Min_cycle;Max_cycle;Signal;HPM_P1;HPM_P2
2023/01/02 00:01:07;;;;;;;21.92;9.68;;;;;;;;;;4983882;28;20216;-68
2023/01/02 00:03:32;;;;;;;17.73;10.40;;;;;;;;;;4988651;28;20204;-69
2023/01/02 00:06:02;;;;;;;16.30;9.38;;;;;;;;;;4994414;28;20224;-68
2023/01/02 00:08:27;;;;;;;16.80;8.90;;;;;;;;;;4991560;28;20209;-70
2023/01/02 00:10:52;;;;;;;18.63;9.05;;;;;;;;;;4989994;28;20187;-69
2023/01/02 00:13:18;;;;;;;22.50;9.80;;;;;;;;;;4987756;28;20208;-69
2023/01/02 00:15:43;;;;;;;16.70;8.73;;;;;;;;;;4985448;28;20654;-69
2023/01/02 00:18:08;;;;;;;18.35;9.02;;;;;;;;;;4995953;28;20218;-69
2023/01/02 00:20:34;;;;;;;21.13;10.10;;;;;;;;;;4994395;28;20196;-69
2023/01/02 00:22:59;;;;;;;22.35;11.30;;;;;;;;;;4999644;28;20191;-69
2023/01/02 00:25:25;;;;;;;17.80;8.60;;;;;;;;;;4988938;28;20333;-68
2023/01/02 00:27:50;;;;;;;19.90;8.95;;;;;;;;;;4991590;28;20238;-68
2023/01/02 00:30:15;;;;;;;24.00;8.73;;;;;;;;;;4988818;28;20765;-68
2023/01/02 00:32:41;;;;;;;16.10;8.77;;;;;;;;;;4984759;28;20191;-68
2023/01/02 00:35:07;;;;;;;18.45;9.80;;;;;;;;;;4987699;28;20269;-68
2023/01/02 00:37:32;;;;;;;15.98;9.35;;;;;;;;;;4995759;28;20202;-68
2023/01/02 00:39:57;;;;;;;18.58;8.85;;;;;;;;;;4990180;28;20187;-68
2023/01/02 00:42:23;;;;;;;20.77;8.77;;;;;;;;;;4987711;28;20702;-68
2023/01/02 00:44:48;;;;;;;18.02;9.00;;;;;;;;;;4988098;28;20191;-68
2023/01/02 00:47:14;;;;;;;21.65;8.98;;;;;;;;;;4989523;28;20535;-68
2023/01/02 00:49:39;;;;;;;15.23;8.63;;;;;;;;;;4984537;28;20223;-68
2023/01/02 00:52:04;;;;;;;14.20;8.50;;;;;;;;;;4987506;28;20234;-68
2023/01/02 00:54:30;;;;;;;20.00;9.05;;;;;;;;;;4986053;28;20782;-68
2023/01/02 00:56:55;;;;;;;15.90;8.00;;;;;;;;;;4986933;28;20269;-69
2023/01/02 00:59:20;;;;;;;15.45;8.10;;;;;;;;;;4988623;28;20188;-68
2023/01/02 01:01:46;;;;;;;20.67;9.20;;;;;;;;;;4983434;28;20198;-68
2023/01/02 01:04:12;;;;;;;17.10;8.40;;;;;;;;;;4989546;28;20196;-68
2023/01/02 01:06:37;;;;;;;16.27;7.80;;;;;;;;;;4986218;28;20672;-68
2023/01/02 01:09:02;;;;;;;16.33;8.05;;;;;;;;;;4977126;28;20202;-68
2023/01/02 01:11:28;;;;;;;19.13;8.15;;;;;;;;;;4990647;28;20191;-67
2023/01/02 01:13:54;;;;;;;15.93;7.53;;;;;;;;;;4994101;28;20270;-68
2023/01/02 01:16:20;;;;;;;17.88;7.13;;;;;;;;;;4990661;28;20234;-68
2023/01/02 01:18:46;;;;;;;14.27;7.13;;;;;;;;;;4997858;28;20341;-68
2023/01/02 01:21:16;;;;;;;18.45;6.95;;;;;;;;;;4989161;28;20207;-67
2023/01/02 01:23:42;;;;;;;18.08;7.25;;;;;;;;;;4988562;28;20231;-67
2023/01/02 01:26:11;;;;;;;13.55;6.57;;;;;;;;;;4985767;28;20957;-68
2023/01/02 01:28:37;;;;;;;15.02;7.05;;;;;;;;;;4982512;28;20623;-68
2023/01/02 01:31:08;;;;;;;19.85;7.75;;;;;;;;;;4988760;28;20262;-67
2023/01/02 01:33:34;;;;;;;12.55;6.72;;;;;;;;;;4980618;28;20198;-67
2023/01/02 01:36:01;;;;;;;13.82;6.50;;;;;;;;;;4984683;28;20700;-67
2023/01/02 01:38:27;;;;;;;15.57;6.07;;;;;;;;;;4983269;28;20247;-67
2023/01/02 01:40:52;;;;;;;18.38;6.80;;;;;;;;;;4991745;28;20199;-67
2023/01/02 01:43:36;;;;;;;11.70;6.10;;;;;;;;;;4987355;28;20210;-68
2023/01/02 01:46:02;;;;;;;16.67;6.28;;;;;;;;;;4989080;28;20746;-67
2023/01/02 01:48:28;;;;;;;14.50;6.57;;;;;;;;;;4985929;28;20278;-67
2023/01/02 01:50:53;;;;;;;18.65;7.07;;;;;;;;;;4981111;28;20278;-67
2023/01/02 01:53:20;;;;;;;16.13;6.47;;;;;;;;;;4982058;28;20192;-68
2023/01/02 01:55:52;;;;;;;17.02;6.45;;;;;;;;;;4984954;28;20210;-67
2023/01/02 01:58:25;;;;;;;14.48;6.10;;;;;;;;;;4987900;28;20568;-67
2023/01/02 02:00:51;;;;;;;16.00;7.10;;;;;;;;;;4994846;28;20566;-67
2023/01/02 02:03:23;;;;;;;12.15;6.68;;;;;;;;;;4992091;28;20195;-68
2023/01/02 02:05:49;;;;;;;12.20;6.60;;;;;;;;;;4992958;28;20491;-68
2023/01/02 02:08:23;;;;;;;15.70;6.90;;;;;;;;;;4986829;28;20194;-67
2023/01/02 02:10:49;;;;;;;14.98;6.97;;;;;;;;;;4983888;28;20662;-68
2023/01/02 02:13:15;;;;;;;10.93;6.50;;;;;;;;;;4994427;28;20195;-68
2023/01/02 02:15:56;;;;;;;15.05;7.15;;;;;;;;;;4988771;28;20205;-68
2023/01/02 02:18:30;;;;;;;14.43;6.82;;;;;;;;;;4978673;28;20207;-67
2023/01/02 02:21:13;;;;;;;11.00;6.45;;;;;;;;;;4976990;28;20537;-67
2023/01/02 02:23:46;;;;;;;11.73;6.15;;;;;;;;;;4987731;28;20230;-67
2023/01/02 02:26:46;;;;;;;14.40;6.07;;;;;;;;;;4991377;28;20267;-68
2023/01/02 02:29:52;;;;;;;12.60;6.60;;;;;;;;;;4986614;28;20214;-68
2023/01/02 02:32:31;;;;;;;15.50;6.32;;;;;;;;;;4982836;28;20241;-67
2023/01/02 02:35:27;;;;;;;13.30;6.30;;;;;;;;;;4989471;28;20223;-68
2023/01/02 02:38:04;;;;;;;15.98;6.18;;;;;;;;;;4987388;28;20269;-68
2023/01/02 02:40:45;;;;;;;14.63;6.60;;;;;;;;;;4980315;28;20257;-67
2023/01/02 02:43:24;;;;;;;11.48;6.22;;;;;;;;;;4984755;28;20335;-68
2023/01/02 02:46:27;;;;;;;14.30;6.38;;;;;;;;;;4978932;28;20274;-68
2023/01/02 02:48:55;;;;;;;17.75;6.40;;;;;;;;;;4978245;28;20279;-68
2023/01/02 02:51:50;;;;;;;16.33;6.43;;;;;;;;;;4988185;28;20198;-69
2023/01/02 02:54:23;;;;;;;12.80;6.15;;;;;;;;;;4984706;28;20215;-69
2023/01/02 02:56:51;;;;;;;16.30;6.70;;;;;;;;;;4990026;28;20251;-68
2023/01/02 02:59:17;;;;;;;19.38;6.90;;;;;;;;;;4981890;28;20215;-69
2023/01/02 03:01:43;;;;;;;12.13;6.15;;;;;;;;;;4988655;28;20191;-69
2023/01/02 03:04:20;;;;;;;15.73;6.40;;;;;;;;;;4987415;28;20198;-69
2023/01/02 03:07:05;;;;;;;15.00;6.18;;;;;;;;;;4993607;28;20195;-70
2023/01/02 03:09:39;;;;;;;13.68;6.50;;;;;;;;;;4983433;28;20196;-68
2023/01/02 03:12:28;;;;;;;15.68;6.53;;;;;;;;;;4991236;28;20249;-69
2023/01/02 03:14:56;;;;;;;15.48;6.55;;;;;;;;;;4985344;28;20216;-69
2023/01/02 03:17:53;;;;;;;13.02;5.75;;;;;;;;;;4990887;28;20598;-69
2023/01/02 03:20:23;;;;;;;14.48;5.78;;;;;;;;;;4986973;28;20668;-69
2023/01/02 03:22:54;;;;;;;13.15;5.50;;;;;;;;;;4991718;28;20568;-68
2023/01/02 03:25:21;;;;;;;16.50;7.00;;;;;;;;;;4994310;28;20631;-68
2023/01/02 03:27:49;;;;;;;13.90;6.20;;;;;;;;;;4994032;28;20180;-69
2023/01/02 03:30:18;;;;;;;14.25;5.70;;;;;;;;;;4990412;28;20191;-69
2023/01/02 03:32:49;;;;;;;11.18;5.97;;;;;;;;;;4993013;28;20206;-69
2023/01/02 03:35:20;;;;;;;12.63;6.07;;;;;;;;;;4981332;28;20208;-70
2023/01/02 03:37:50;;;;;;;16.10;6.25;;;;;;;;;;4989370;28;20227;-70
2023/01/02 03:40:21;;;;;;;15.18;6.35;;;;;;;;;;4983386;28;20207;-70
2023/01/02 03:42:58;;;;;;;16.95;5.82;;;;;;;;;;4988440;28;20695;-69
2023/01/02 03:45:29;;;;;;;11.25;6.30;;;;;;;;;;4989762;28;20235;-69
2023/01/02 03:48:07;;;;;;;15.57;6.00;;;;;;;;;;4988478;28;20220;-69
2023/01/02 03:50:44;;;;;;;13.82;5.90;;;;;;;;;;4989571;28;20192;-69
2023/01/02 03:53:09;;;;;;;12.18;5.60;;;;;;;;;;4991600;28;20269;-69
2023/01/02 03:55:39;;;;;;;17.42;6.30;;;;;;;;;;4989654;28;20212;-69
2023/01/02 03:58:07;;;;;;;16.63;6.05;;;;;;;;;;4991312;28;20192;-69
2023/01/02 04:00:41;;;;;;;16.20;6.40;;;;;;;;;;4984146;28;20219;-69
2023/01/02 04:03:16;;;;;;;14.48;6.53;;;;;;;;;;4991019;28;20273;-69
2023/01/02 04:05:48;;;;;;;15.18;6.28;;;;;;;;;;4981205;28;20194;-69
2023/01/02 04:08:24;;;;;;;16.05;6.10;;;;;;;;;;4983443;28;20241;-68
2023/01/02 04:10:53;;;;;;;17.55;6.78;;;;;;;;;;4987343;28;20211;-68
2023/01/02 04:13:25;;;;;;;13.75;5.75;;;;;;;;;;4985126;28;20196;-68
2023/01/02 04:15:51;;;;;;;12.63;5.93;;;;;;;;;;4986546;28;20666;-69
2023/01/02 04:18:30;;;;;;;17.63;6.15;;;;;;;;;;4984395;28;20194;-68
2023/01/02 04:21:00;;;;;;;17.40;6.38;;;;;;;;;;4989021;28;20199;-68
2023/01/02 04:23:35;;;;;;;16.50;6.50;;;;;;;;;;4987799;28;20283;-68
2023/01/02 04:26:16;;;;;;;10.52;6.13;;;;;;;;;;4988181;28;20665;-68
2023/01/02 04:28:41;;;;;;;14.07;5.78;;;;;;;;;;4984475;28;20195;-68
2023/01/02 04:31:41;;;;;;;13.45;5.40;;;;;;;;;;4977931;28;20258;-68
2023/01/02 04:34:11;;;;;;;12.30;5.30;;;;;;;;;;4964129;28;20211;-68
2023/01/02 04:36:38;;;;;;;13.07;5.22;;;;;;;;;;4983709;28;20671;-68
2023/01/02 04:39:03;;;;;;;12.25;5.20;;;;;;;;;;4990127;28;20274;-69
2023/01/02 04:41:30;;;;;;;12.93;5.43;;;;;;;;;;4987667;28;20291;-68
2023/01/02 04:43:56;;;;;;;12.90;5.43;;;;;;;;;;4986431;28;20619;-68
2023/01/02 04:46:22;;;;;;;13.80;5.32;;;;;;;;;;4985513;28;20275;-69
2023/01/02 04:48:48;;;;;;;13.40;5.75;;;;;;;;;;4987091;28;20542;-68
2023/01/02 04:51:13;;;;;;;12.07;5.43;;;;;;;;;;4990817;28;20195;-69
2023/01/02 04:53:39;;;;;;;13.60;5.13;;;;;;;;;;4991733;28;20191;-68
2023/01/02 04:56:04;;;;;;;9.15;5.60;;;;;;;;;;4994210;28;20206;-68
2023/01/02 04:58:30;;;;;;;10.52;4.88;;;;;;;;;;4997675;28;20643;-68
2023/01/02 05:00:55;;;;;;;14.93;5.13;;;;;;;;;;4983875;28;20623;-68
2023/01/02 05:03:21;;;;;;;10.55;4.90;;;;;;;;;;4987382;28;20223;-69
2023/01/02 05:05:46;;;;;;;12.48;4.78;;;;;;;;;;4985520;28;20184;-68
2023/01/02 05:08:12;;;;;;;9.02;4.93;;;;;;;;;;4986147;28;20226;-68
2023/01/02 05:10:37;;;;;;;10.18;4.32;;;;;;;;;;4987297;28;20191;-68
2023/01/02 05:13:02;;;;;;;9.75;4.45;;;;;;;;;;4985019;28;20195;-68
2023/01/02 05:15:28;;;;;;;13.68;4.60;;;;;;;;;;4986981;28;20212;-68
2023/01/02 05:17:53;;;;;;;9.45;4.47;;;;;;;;;;4989610;28;20269;-67
2023/01/02 05:20:19;;;;;;;14.77;4.90;;;;;;;;;;4993530;28;20207;-68
2023/01/02 05:25:32;;;;;;;13.98;4.65;;;;;;;;;;4992240;28;20465;-68
2023/01/02 05:27:58;;;;;;;12.43;4.95;;;;;;;;;;4985030;28;20192;-68
2023/01/02 05:30:23;;;;;;;9.45;4.93;;;;;;;;;;4996423;28;20186;-68
2023/01/02 05:32:48;;;;;;;14.82;4.95;;;;;;;;;;4995800;28;20204;-68
2023/01/02 05:35:14;;;;;;;13.82;5.18;;;;;;;;;;4995879;28;20548;-68
2023/01/02 05:37:40;;;;;;;10.15;4.70;;;;;;;;;;5001045;28;20614;-68
2023/01/02 05:40:05;;;;;;;13.05;5.45;;;;;;;;;;4996262;28;20196;-68
2023/01/02 05:42:31;;;;;;;8.20;4.70;;;;;;;;;;4998018;28;20195;-68
2023/01/02 05:44:56;;;;;;;13.55;4.95;;;;;;;;;;5003605;28;20188;-68
2023/01/02 05:47:22;;;;;;;14.80;5.03;;;;;;;;;;4996944;28;20214;-68
2023/01/02 05:49:47;;;;;;;10.07;4.85;;;;;;;;;;5004115;28;20674;-68
2023/01/02 05:52:13;;;;;;;9.80;4.80;;;;;;;;;;5000390;28;20193;-68
2023/01/02 05:54:38;;;;;;;10.98;4.57;;;;;;;;;;5001363;28;20567;-69
2023/01/02 05:57:03;;;;;;;10.25;5.28;;;;;;;;;;5001318;28;20273;-69
2023/01/02 05:59:29;;;;;;;13.13;5.10;;;;;;;;;;5006576;28;20215;-69
2023/01/02 06:01:54;;;;;;;11.23;4.60;;;;;;;;;;5001409;28;20765;-69
2023/01/02 06:04:19;;;;;;;11.10;5.05;;;;;;;;;;4983919;28;20207;-69
2023/01/02 06:06:45;;;;;;;10.50;5.75;;;;;;;;;;5003954;28;20300;-69
2023/01/02 06:09:13;;;;;;;11.63;5.70;;;;;;;;;;4996127;28;20184;-69
2023/01/02 06:11:38;;;;;;;14.43;5.57;;;;;;;;;;4998953;28;20195;-69
2023/01/02 06:14:03;;;;;;;16.48;5.63;;;;;;;;;;5002131;28;20617;-69
2023/01/02 06:16:29;;;;;;;13.18;5.13;;;;;;;;;;5004655;28;20333;-69
2023/01/02 06:18:55;;;;;;;14.95;5.95;;;;;;;;;;4999675;28;20262;-68
2023/01/02 06:21:21;;;;;;;12.70;5.32;;;;;;;;;;4997264;28;20227;-68
2023/01/02 06:23:48;;;;;;;13.50;5.45;;;;;;;;;;4991996;28;20230;-68
2023/01/02 06:26:16;;;;;;;13.23;5.25;;;;;;;;;;4991397;28;20198;-68
2023/01/02 06:28:42;;;;;;;8.63;5.00;;;;;;;;;;4996710;28;20659;-68
2023/01/02 06:31:11;;;;;;;10.20;5.25;;;;;;;;;;4993655;28;20874;-68
2023/01/02 06:33:36;;;;;;;14.95;5.65;;;;;;;;;;4999244;28;20534;-68
2023/01/02 06:36:08;;;;;;;16.13;5.25;;;;;;;;;;4998591;28;20211;-67
2023/01/02 06:38:34;;;;;;;10.77;5.40;;;;;;;;;;4998663;28;20619;-68
2023/01/02 06:41:01;;;;;;;11.57;5.57;;;;;;;;;;4991478;28;20204;-68
2023/01/02 06:43:28;;;;;;;15.35;5.70;;;;;;;;;;4992454;28;20195;-68
2023/01/02 06:45:56;;;;;;;15.20;5.40;;;;;;;;;;4978503;28;20735;-69
2023/01/02 06:48:22;;;;;;;12.27;5.20;;;;;;;;;;4986537;28;20196;-68
2023/01/02 06:50:47;;;;;;;12.35;5.65;;;;;;;;;;4987599;28;20202;-68
2023/01/02 06:53:13;;;;;;;13.18;5.60;;;;;;;;;;4977187;28;20715;-68
2023/01/02 06:55:38;;;;;;;10.48;5.20;;;;;;;;;;4986931;28;20221;-68
2023/01/02 06:58:04;;;;;;;11.30;4.93;;;;;;;;;;4977978;28;20266;-69
2023/01/02 07:00:29;;;;;;;11.77;4.82;;;;;;;;;;4979975;28;20207;-68
2023/01/02 07:02:54;;;;;;;10.45;4.85;;;;;;;;;;4984828;28;20183;-68
2023/01/02 07:05:20;;;;;;;9.82;4.65;;;;;;;;;;4994989;28;20282;-69
2023/01/02 07:07:45;;;;;;;10.80;4.38;;;;;;;;;;4987255;28;20891;-68
2023/01/02 07:10:11;;;;;;;10.93;5.53;;;;;;;;;;4990210;28;20198;-68
2023/01/02 07:12:37;;;;;;;13.05;4.82;;;;;;;;;;4979366;28;20195;-68
2023/01/02 07:15:04;;;;;;;6.50;4.28;;;;;;;;;;4987770;28;20250;-68
2023/01/02 07:17:31;;;;;;;16.13;4.88;;;;;;;;;;4980391;28;20207;-68
2023/01/02 07:19:57;;;;;;;9.02;4.03;;;;;;;;;;4984585;28;20540;-68
2023/01/02 07:22:22;;;;;;;6.55;4.03;;;;;;;;;;4987409;28;20270;-68
2023/01/02 07:24:47;;;;;;;12.95;3.97;;;;;;;;;;4992452;28;20223;-68
2023/01/02 07:27:13;;;;;;;9.68;4.30;;;;;;;;;;4993075;28;20812;-68
2023/01/02 07:29:38;;;;;;;10.32;4.50;;;;;;;;;;5002704;28;20191;-69
2023/01/02 07:32:03;;;;;;;9.52;4.78;;;;;;;;;;4982981;28;20188;-70
2023/01/02 07:34:29;;;;;;;13.35;4.22;;;;;;;;;;4984808;28;20200;-70
2023/01/02 07:36:54;;;;;;;16.60;5.22;;;;;;;;;;4990500;28;20199;-72
2023/01/02 07:39:21;;;;;;;9.95;4.47;;;;;;;;;;4995036;28;20622;-70
2023/01/02 07:41:46;;;;;;;7.03;3.00;;;;;;;;;;4997659;28;20214;-70
2023/01/02 07:44:12;;;;;;;8.38;3.03;;;;;;;;;;4991525;28;20631;-71
2023/01/02 07:46:37;;;;;;;6.38;2.65;;;;;;;;;;4987531;28;20199;-69
2023/01/02 07:49:03;;;;;;;3.20;1.90;;;;;;;;;;4992598;28;20250;-69
2023/01/02 07:51:28;;;;;;;2.40;1.60;;;;;;;;;;4987541;28;20663;-70
2023/01/02 07:53:54;;;;;;;2.28;1.48;;;;;;;;;;4994404;28;20191;-70
2023/01/02 07:56:19;;;;;;;1.52;1.10;;;;;;;;;;4992460;28;20678;-69
2023/01/02 07:58:45;;;;;;;2.65;1.40;;;;;;;;;;4991813;28;20241;-69
2023/01/02 08:01:11;;;;;;;3.00;1.20;;;;;;;;;;4992973;28;20590;-69
2023/01/02 08:03:37;;;;;;;1.33;1.23;;;;;;;;;;4986031;28;20875;-68
2023/01/02 08:06:08;;;;;;;1.63;0.98;;;;;;;;;;4990249;28;20192;-69
2023/01/02 08:08:35;;;;;;;1.17;0.90;;;;;;;;;;4975678;28;20231;-70
2023/01/02 08:11:05;;;;;;;1.60;1.20;;;;;;;;;;4992353;28;20278;-69
2023/01/02 08:13:30;;;;;;;1.73;1.52;;;;;;;;;;4988413;28;20193;-69
2023/01/02 08:15:55;;;;;;;2.47;1.70;;;;;;;;;;4993879;28;20211;-69
2023/01/02 08:18:21;;;;;;;2.13;1.73;;;;;;;;;;4996420;28;20619;-69
2023/01/02 08:20:46;;;;;;;2.13;1.98;;;;;;;;;;4995144;28;20196;-69
2023/01/02 08:23:12;;;;;;;2.70;2.50;;;;;;;;;;4987107;28;20230;-69
2023/01/02 08:25:37;;;;;;;3.20;2.78;;;;;;;;;;4994713;28;20191;-69
2023/01/02 08:28:02;;;;;;;4.68;3.50;;;;;;;;;;4985274;28;20219;-69
2023/01/02 08:30:28;;;;;;;4.00;3.70;;;;;;;;;;4982711;28;20608;-69
2023/01/02 08:32:53;;;;;;;5.28;3.42;;;;;;;;;;4994159;28;20861;-69
2023/01/02 08:35:19;;;;;;;5.32;4.40;;;;;;;;;;4999969;28;20234;-68
2023/01/02 08:37:44;;;;;;;5.45;4.93;;;;;;;;;;4996400;28;20301;-69
2023/01/02 08:40:10;;;;;;;6.10;5.45;;;;;;;;;;4987904;28;20199;-69
2023/01/02 08:42:35;;;;;;;5.68;5.03;;;;;;;;;;4985091;28;20277;-69
2023/01/02 08:45:00;;;;;;;6.90;6.15;;;;;;;;;;4998904;28;20183;-69
2023/01/02 08:47:26;;;;;;;7.60;5.72;;;;;;;;;;5001124;28;20244;-68
2023/01/02 08:49:51;;;;;;;6.90;6.20;;;;;;;;;;4996665;28;20323;-69
2023/01/02 08:52:16;;;;;;;7.05;6.28;;;;;;;;;;4985549;28;20199;-69
2023/01/02 08:54:42;;;;;;;7.32;6.45;;;;;;;;;;4990876;28;20215;-68
2023/01/02 08:57:07;;;;;;;9.10;6.80;;;;;;;;;;4985540;28;20183;-69
2023/01/02 08:59:33;;;;;;;7.78;6.88;;;;;;;;;;4982438;28;20535;-69
2023/01/02 09:01:58;;;;;;;7.07;6.28;;;;;;;;;;4988883;28;20195;-69
2023/01/02 09:04:24;;;;;;;7.53;6.18;;;;;;;;;;4987562;28;20208;-69
2023/01/02 09:06:49;;;;;;;6.25;5.65;;;;;;;;;;4992166;28;20194;-68
2023/01/02 09:09:16;;;;;;;6.70;6.00;;;;;;;;;;5005232;28;20186;-68
2023/01/02 09:11:50;;;;;;;7.05;5.50;;;;;;;;;;4997404;28;20635;-68
2023/01/02 09:14:17;;;;;;;5.03;4.53;;;;;;;;;;4999032;28;20196;-68
2023/01/02 09:16:42;;;;;;;4.82;3.95;;;;;;;;;;5000002;28;20191;-69
2023/01/02 09:19:08;;;;;;;5.72;4.65;;;;;;;;;;4997208;28;20187;-69
2023/01/02 09:21:34;;;;;;;4.50;4.10;;;;;;;;;;5003325;28;20223;-70
2023/01/02 09:23:59;;;;;;;5.40;4.15;;;;;;;;;;4988342;28;20231;-69
2023/01/02 09:26:25;;;;;;;5.55;4.50;;;;;;;;;;5001827;28;20257;-69
2023/01/02 09:28:51;;;;;;;6.43;4.75;;;;;;;;;;4994036;28;20289;-69
2023/01/02 09:31:17;;;;;;;5.18;4.20;;;;;;;;;;5002339;28;20199;-69
2023/01/02 09:33:44;;;;;;;7.15;4.30;;;;;;;;;;4997187;28;20203;-70
2023/01/02 09:36:11;;;;;;;4.72;4.25;;;;;;;;;;5001434;28;20627;-69
2023/01/02 09:38:37;;;;;;;4.97;4.47;;;;;;;;;;4996713;28;20182;-69
2023/01/02 09:41:20;;;;;;;7.55;4.65;;;;;;;;;;4993745;28;20655;-70
2023/01/02 09:43:52;;;;;;;3.65;3.22;;;;;;;;;;5000503;28;20602;-69
2023/01/02 09:46:35;;;;;;;3.20;2.80;;;;;;;;;;4996856;28;20677;-69
2023/01/02 09:49:02;;;;;;;4.93;2.65;;;;;;;;;;4997968;28;20191;-69
2023/01/02 09:51:27;;;;;;;4.97;2.35;;;;;;;;;;5001022;28;20529;-69
2023/01/02 09:53:53;;;;;;;2.38;1.95;;;;;;;;;;4999428;28;20204;-69
2023/01/02 09:56:42;;;;;;;2.90;2.08;;;;;;;;;;4986905;28;20886;-70
2023/01/02 09:59:30;;;;;;;2.20;2.00;;;;;;;;;;4983992;28;20236;-69
2023/01/02 10:02:04;;;;;;;3.45;1.95;;;;;;;;;;4993979;28;20708;-70
2023/01/02 10:05:07;;;;;;;2.00;1.80;;;;;;;;;;4998507;28;20190;-69
2023/01/02 10:07:43;;;;;;;3.13;1.83;;;;;;;;;;4992278;28;20269;-69
2023/01/02 10:10:41;;;;;;;3.10;2.30;;;;;;;;;;4996019;28;20244;-69
2023/01/02 10:13:23;;;;;;;2.97;2.20;;;;;;;;;;4981650;28;20199;-69
2023/01/02 10:15:51;;;;;;;5.70;2.58;;;;;;;;;;4991743;28;20261;-69
2023/01/02 10:18:21;;;;;;;2.67;2.47;;;;;;;;;;4999343;28;20353;-69
2023/01/02 10:20:54;;;;;;;3.28;2.80;;;;;;;;;;4997698;28;20203;-69
2023/01/02 10:23:28;;;;;;;3.20;2.45;;;;;;;;;;4995194;28;20356;-70
2023/01/02 10:25:59;;;;;;;3.55;2.50;;;;;;;;;;4995384;28;20290;-69
2023/01/02 10:28:43;;;;;;;3.38;2.25;;;;;;;;;;4991786;28;20286;-68
2023/01/02 10:31:32;;;;;;;4.78;2.80;;;;;;;;;;4998434;28;20269;-68
2023/01/02 10:34:00;;;;;;;3.65;2.83;;;;;;;;;;5000744;28;20328;-69
2023/01/02 10:36:37;;;;;;;4.63;3.00;;;;;;;;;;4993174;28;20273;-69
2023/01/02 10:39:05;;;;;;;3.65;2.67;;;;;;;;;;4991341;28;20194;-70
2023/01/02 10:41:32;;;;;;;2.80;2.50;;;;;;;;;;4981901;28;20218;-70
2023/01/02 10:44:04;;;;;;;2.08;1.60;;;;;;;;;;4998282;28;20815;-69
2023/01/02 10:46:35;;;;;;;2.47;1.55;;;;;;;;;;4994499;28;20199;-69
2023/01/02 10:49:07;;;;;;;2.88;1.40;;;;;;;;;;5000643;28;20650;-69
2023/01/02 10:51:34;;;;;;;1.95;1.40;;;;;;;;;;4992998;28;20282;-70
2023/01/02 10:54:08;;;;;;;2.85;1.75;;;;;;;;;;4998697;28;20207;-70
2023/01/02 10:56:36;;;;;;;3.70;1.80;;;;;;;;;;4997576;28;20449;-70
2023/01/02 10:59:02;;;;;;;4.93;2.00;;;;;;;;;;5004742;28;20282;-70
2023/01/02 11:01:28;;;;;;;4.22;2.40;;;;;;;;;;4994127;28;20332;-68
2023/01/02 11:03:54;;;;;;;5.70;2.42;;;;;;;;;;4997344;28;20725;-68
2023/01/02 11:06:24;;;;;;;2.55;2.35;;;;;;;;;;4998864;28;20218;-69
2023/01/02 11:08:58;;;;;;;4.20;2.60;;;;;;;;;;4992639;28;20568;-69
2023/01/02 11:11:25;;;;;;;4.25;2.30;;;;;;;;;;4995242;28;20236;-69
2023/01/02 11:13:55;;;;;;;3.22;2.15;;;;;;;;;;4988542;28;20196;-69
2023/01/02 11:16:25;;;;;;;3.53;2.28;;;;;;;;;;4999598;28;20235;-69
2023/01/02 11:18:56;;;;;;;3.03;2.17;;;;;;;;;;4998200;28;20199;-69
2023/01/02 11:21:32;;;;;;;3.25;1.77;;;;;;;;;;5001103;28;20194;-69
2023/01/02 11:24:05;;;;;;;4.45;2.00;;;;;;;;;;4994382;28;21560;-69
2023/01/02 11:26:33;;;;;;;4.18;2.00;;;;;;;;;;5002690;28;20183;-70
2023/01/02 11:29:07;;;;;;;4.63;1.83;;;;;;;;;;5002634;28;20184;-70
2023/01/02 11:31:32;;;;;;;2.72;1.73;;;;;;;;;;4997089;28;20191;-69
2023/01/02 11:34:17;;;;;;;4.45;1.83;;;;;;;;;;5002585;28;20606;-69
2023/01/02 11:36:43;;;;;;;3.88;2.03;;;;;;;;;;5002335;28;20330;-70
2023/01/02 11:39:23;;;;;;;2.88;1.85;;;;;;;;;;5003498;28;20577;-71
2023/01/02 11:44:35;;;;;;;3.78;2.08;;;;;;;;;;4999596;28;20258;-70
2023/01/02 11:47:03;;;;;;;4.65;1.73;;;;;;;;;;4996988;28;20274;-70
2023/01/02 11:49:43;;;;;;;5.30;1.67;;;;;;;;;;4996075;28;20199;-69
2023/01/02 11:52:13;;;;;;;3.20;1.77;;;;;;;;;;4997902;28;20199;-69
2023/01/02 11:54:45;;;;;;;4.82;1.73;;;;;;;;;;5001004;28;20262;-70
2023/01/02 11:57:28;;;;;;;3.80;1.70;;;;;;;;;;5000418;28;20194;-70
2023/01/02 11:59:57;;;;;;;2.78;1.40;;;;;;;;;;4981570;28;20211;-70
2023/01/02 12:02:30;;;;;;;4.05;1.70;;;;;;;;;;4972524;28;20416;-70
2023/01/02 12:04:55;;;;;;;6.00;1.48;;;;;;;;;;4976241;28;20688;-69
2023/01/02 12:07:36;;;;;;;3.03;1.40;;;;;;;;;;4974735;28;20196;-69
2023/01/02 12:10:13;;;;;;;5.00;1.45;;;;;;;;;;4972919;28;20189;-69
2023/01/02 12:12:49;;;;;;;3.28;2.08;;;;;;;;;;4981490;28;20231;-69
2023/01/02 12:15:36;;;;;;;3.10;1.95;;;;;;;;;;4983406;28;20294;-70
2023/01/02 12:18:10;;;;;;;4.10;1.75;;;;;;;;;;4979665;28;20199;-70
2023/01/02 12:20:48;;;;;;;6.38;2.55;;;;;;;;;;4983655;28;20195;-70
2023/01/02 12:23:32;;;;;;;8.98;5.13;;;;;;;;;;4980376;28;20247;-69
2023/01/02 12:26:11;;;;;;;6.40;3.80;;;;;;;;;;4979847;28;20719;-70
2023/01/02 12:29:11;;;;;;;6.88;3.88;;;;;;;;;;4977109;28;20722;-70
2023/01/02 12:32:15;;;;;;;4.50;3.38;;;;;;;;;;4980296;28;20599;-70
2023/01/02 12:34:46;;;;;;;7.40;4.10;;;;;;;;;;4980010;28;20349;-70
2023/01/02 12:37:43;;;;;;;10.30;5.05;;;;;;;;;;4978160;28;20210;-70
2023/01/02 12:40:30;;;;;;;10.15;6.00;;;;;;;;;;4977563;28;20285;-70
2023/01/02 12:43:32;;;;;;;8.30;5.40;;;;;;;;;;4978303;28;20207;-70
2023/01/02 12:46:15;;;;;;;8.60;5.50;;;;;;;;;;4977177;28;20187;-70
2023/01/02 12:49:08;;;;;;;9.93;5.32;;;;;;;;;;4980340;28;20183;-68
2023/01/02 12:51:59;;;;;;;6.57;5.75;;;;;;;;;;4978708;28;20195;-68
2023/01/02 12:54:36;;;;;;;7.20;5.63;;;;;;;;;;4978371;28;20646;-68
2023/01/02 12:57:23;;;;;;;8.05;6.35;;;;;;;;;;4977428;28;20218;-68
2023/01/02 13:00:31;;;;;;;8.75;6.70;;;;;;;;;;4976936;28;20219;-68
2023/01/02 13:03:21;;;;;;;8.30;6.10;;;;;;;;;;4955875;28;20774;-68
2023/01/02 13:05:52;;;;;;;10.20;5.07;;;;;;;;;;4282972;28;10000710;-68
2023/01/02 13:08:30;;;;;;;8.95;5.05;;;;;;;;;;4974038;28;20972;-68
2023/01/02 13:10:59;;;;;;;8.55;4.80;;;;;;;;;;4981734;28;20202;-68
2023/01/02 13:13:30;;;;;;;10.25;5.68;;;;;;;;;;4980079;28;20302;-68
2023/01/02 13:16:00;;;;;;;8.95;4.63;;;;;;;;;;4983723;28;20207;-68
2023/01/02 13:18:50;;;;;;;6.70;4.93;;;;;;;;;;4984041;28;20546;-68
2023/01/02 13:21:24;;;;;;;5.30;4.35;;;;;;;;;;4983062;28;20191;-69
2023/01/02 13:23:50;;;;;;;7.57;4.43;;;;;;;;;;4990138;28;20387;-68
2023/01/02 13:26:25;;;;;;;7.13;4.20;;;;;;;;;;4993070;28;20270;-68
2023/01/02 13:29:08;;;;;;;7.20;4.63;;;;;;;;;;4988316;28;20195;-68
2023/01/02 13:31:39;;;;;;;9.07;4.35;;;;;;;;;;4985375;28;20196;-68
2023/01/02 13:34:14;;;;;;;7.50;4.60;;;;;;;;;;4985820;28;20254;-68
2023/01/02 13:36:44;;;;;;;4.90;4.13;;;;;;;;;;4977268;28;20298;-67
2023/01/02 13:39:41;;;;;;;6.75;4.70;;;;;;;;;;4982342;28;20327;-68
2023/01/02 13:45:19;;;;;;;9.85;4.57;;;;;;;;;;4985048;28;20334;-68
2023/01/02 13:47:53;;;;;;;10.23;5.22;;;;;;;;;;4982177;28;20694;-68
2023/01/02 13:50:26;;;;;;;7.80;4.57;;;;;;;;;;4983484;28;20196;-68
2023/01/02 13:53:05;;;;;;;9.38;4.53;;;;;;;;;;4981780;28;20202;-68
2023/01/02 13:55:35;;;;;;;6.00;3.38;;;;;;;;;;4996967;28;20210;-69
2023/01/02 13:58:21;;;;;;;5.13;3.45;;;;;;;;;;4980948;28;20733;-68
2023/01/02 14:00:54;;;;;;;5.28;3.65;;;;;;;;;;4977872;28;20611;-68
2023/01/02 14:03:20;;;;;;;11.55;4.13;;;;;;;;;;4980670;28;20199;-68
2023/01/02 14:05:59;;;;;;;6.53;3.55;;;;;;;;;;4995711;28;20245;-67
2023/01/02 14:08:26;;;;;;;7.15;3.67;;;;;;;;;;4976656;28;20198;-67
2023/01/02 14:10:57;;;;;;;7.20;3.63;;;;;;;;;;4981413;28;20203;-69
2023/01/02 14:13:45;;;;;;;9.25;3.90;;;;;;;;;;4984749;28;20250;-68
2023/01/02 14:16:48;;;;;;;7.60;3.90;;;;;;;;;;4997313;28;20422;-69
2023/01/02 14:19:17;;;;;;;11.07;3.78;;;;;;;;;;4995273;28;20206;-68
2023/01/02 14:21:44;;;;;;;9.55;3.60;;;;;;;;;;4988586;28;20286;-68
2023/01/02 14:24:12;;;;;;;8.20;3.80;;;;;;;;;;4993882;28;20270;-68
2023/01/02 14:26:40;;;;;;;8.90;3.53;;;;;;;;;;5001753;28;20213;-68
2023/01/02 14:29:11;;;;;;;10.70;3.80;;;;;;;;;;4995943;28;20195;-69
2023/01/02 14:31:37;;;;;;;9.45;3.92;;;;;;;;;;4994030;28;20207;-69
2023/01/02 14:34:03;;;;;;;11.15;4.00;;;;;;;;;;4995329;28;22062;-69
2023/01/02 14:36:45;;;;;;;7.78;3.67;;;;;;;;;;4999370;28;20210;-69
2023/01/02 14:39:19;;;;;;;8.18;3.65;;;;;;;;;;4995121;28;20658;-69
2023/01/02 14:44:53;;;;;;;8.48;3.92;;;;;;;;;;4993668;28;20243;-70
2023/01/02 14:47:27;;;;;;;9.23;4.00;;;;;;;;;;4985376;28;20187;-68
2023/01/02 14:49:57;;;;;;;7.63;3.55;;;;;;;;;;4990515;28;20194;-69
2023/01/02 14:52:33;;;;;;;8.27;4.25;;;;;;;;;;4995191;28;20197;-69
2023/01/02 14:55:14;;;;;;;7.85;4.22;;;;;;;;;;4990646;28;20309;-68
2023/01/02 14:57:43;;;;;;;12.38;5.50;;;;;;;;;;4993035;28;20197;-69
2023/01/02 15:00:24;;;;;;;10.38;5.68;;;;;;;;;;4993791;28;20240;-70
2023/01/02 15:02:57;;;;;;;12.82;6.78;;;;;;;;;;4992652;28;20199;-69
2023/01/02 15:05:33;;;;;;;12.27;6.10;;;;;;;;;;4990031;28;20183;-69
2023/01/02 15:08:01;;;;;;;13.82;6.80;;;;;;;;;;4996038;28;20186;-69
2023/01/02 15:10:27;;;;;;;14.23;7.32;;;;;;;;;;4978719;28;20194;-69